METAR Data
IDs: Format: Raw Decoded Include TAF

Data at: 0248 UTC 19 Feb 2019

KERV 190235Z AUTO 07006KT 10SM OVC055 09/00 A3014 RMK AO2 T00880000
KERV 190215Z AUTO 06007KT 10SM OVC055 09/00 A3015 RMK AO2 T00920000
KERV 190155Z AUTO 05006KT 10SM OVC055 09/00 A3014 RMK AO2 T00920000
KERV 190135Z AUTO 06005KT 10SM BKN055 09/00 A3013 RMK AO2 T00921005
KERV 190115Z AUTO 06006KT 10SM CLR 09/M01 A3012 RMK AO2 T00921007
KERV 190055Z AUTO 06007KT 10SM CLR 11/00 A3011 RMK AO2 T01061002
KERV 190035Z AUTO 06006KT 10SM CLR 11/M01 A3011 RMK AO2 T01061008
KERV 190015Z AUTO 06007KT 10SM CLR 11/M01 A3011 RMK AO2 T01081013
KERV 182355Z AUTO 06008KT 10SM CLR 12/M01 A3010 RMK AO2 T01201008 10148 20120
KERV 182335Z AUTO 06010KT 10SM CLR 12/M01 A3009 RMK AO2 T01201014
KERV 182315Z AUTO 05010KT 10SM CLR 14/M01 A3010 RMK AO2 T01351010
KERV 182255Z AUTO 05007KT 10SM CLR 14/M02 A3010 RMK AO2 T01351016

KT82 190235Z AUTO 05006KT 10SM BKN055 06/M01 A3017 RMK AO2 T00581006
KT82 190215Z AUTO 07010KT 10SM SCT055 06/00 A3016 RMK AO2 T00641005
KT82 190155Z AUTO 06008KT 10SM SCT055 07/00 A3016 RMK AO2 T00701005
KT82 190135Z AUTO 06008KT 10SM BKN055 07/00 A3015 RMK AO2 T00741005
KT82 190115Z AUTO 06007KT 10SM BKN055 08/00 A3014 RMK AO2 T00771003
KT82 190055Z AUTO 06007KT 10SM SCT055 08/00 A3013 RMK AO2 T00801002
KT82 190035Z AUTO 07008KT 10SM CLR 09/00 A3012 RMK AO2 T00861004
KT82 190015Z AUTO 06006KT 10SM CLR 09/00 A3012 RMK AO2 T00921005
KT82 182355Z AUTO 07010KT 10SM CLR 10/M01 A3012 RMK AO2 T00991007 10127 20099
KT82 182335Z AUTO 08009KT 10SM CLR 11/M03 A3011 RMK AO2 T01101026
KT82 182315Z AUTO 08010KT 10SM CLR 11/M02 A3011 RMK AO2 T01121025
KT82 182255Z AUTO 08005KT 10SM CLR 12/M03 A3011 RMK AO2 T01161026

KJCT 190151Z AUTO 09010KT 10SM CLR 08/M02 A3014 RMK AO2 SLP195 T00781022
KJCT 190051Z AUTO 07010KT 10SM CLR 09/M02 A3013 RMK AO2 SLP189 T00891022
KJCT 182351Z AUTO 07014KT 10SM CLR 11/M02 A3010 RMK AO2 SLP179 T01061022 10139 20089 55009
KJCT 182251Z AUTO 07012KT 10SM CLR 12/M01 A3010 RMK AO2 SLP175 T01221011

K5C1 190235Z AUTO 04009G14KT 10SM OVC060 08/00 A3016 RMK AO1
K5C1 190215Z AUTO 04011G14KT 10SM OVC060 08/00 A3015 RMK AO1
K5C1 190155Z AUTO 05007KT 10SM OVC060 08/00 A3015 RMK AO1
K5C1 190135Z AUTO 04008KT 10SM OVC060 09/00 A3014 RMK AO1
K5C1 190115Z AUTO 04007KT 10SM OVC060 10/00 A3014 RMK AO1
K5C1 190055Z AUTO 06006KT 10SM BKN060 10/00 A3013 RMK AO1
K5C1 190035Z AUTO 06008KT 10SM SCT060 11/00 A3013 RMK AO1
K5C1 190015Z AUTO 06009KT 10SM BKN060 11/00 A3012 RMK AO1
K5C1 182355Z AUTO 07008KT 10SM BKN060 12/M01 A3012 RMK AO1
K5C1 182335Z AUTO 08007KT 10SM OVC060 12/M01 A3011 RMK AO1
K5C1 182315Z AUTO 08005KT 10SM BKN060 13/M01 A3011 RMK AO1
K5C1 182255Z AUTO 07009KT 10SM SCT060 13/M02 A3011 RMK AO1

KHDO 190151Z AUTO 07009KT 10SM SCT050 OVC060 15/00 A3011 RMK AO2 SLP190 T01500000
KHDO 190051Z AUTO 08011KT 10SM OVC060 16/M01 A3009 RMK AO2 SLP183 T01561006
KHDO 182351Z AUTO 10010KT 10SM OVC060 17/M01 A3008 RMK AO2 SLP179 T01671006 10194 20167 55004
KHDO 182251Z AUTO 10012KT 10SM BKN060 17/M01 A3007 RMK AO2 SLP177 T01721006